Time;durP1;ratioP1;P1;durP2;ratioP2;P2;SDS_P1;SDS_P2;PMS_P1;PMS_P2;Temp;Humidity;BMP_temperature;BMP_pressure;BME280_temperature;BME280_humidity;BME280_pressure;Samples;Min_cycle;Max_cycle;Signal;HPM_P1;HPM_P2
2021/07/27 00:01:24;;;;;;;22.73;2.83;;;;;;;;;;4872737;28;20286;-77
2021/07/27 00:04:06;;;;;;;17.43;2.20;;;20.10;83.80;;;;;;4873874;28;20564;-75
2021/07/27 00:06:48;;;;;;;17.50;2.13;;;;;;;;;;4869026;28;20190;-74
2021/07/27 00:09:29;;;;;;;13.80;1.80;;;;;;;;;;4866461;28;20264;-73
2021/07/27 00:12:10;;;;;;;24.53;3.07;;;;;;;;;;4874491;28;20193;-77
2021/07/27 00:14:52;;;;;;;21.63;2.63;;;;;;;;;;4869284;28;20210;-74
2021/07/27 00:17:33;;;;;;;12.47;1.57;;;;;;;;;;4867552;28;20204;-75
2021/07/27 00:20:16;;;;;;;16.20;2.00;;;19.70;45.10;;;;;;4873832;28;20641;-74
2021/07/27 00:22:57;;;;;;;28.53;3.43;;;;;;;;;;4874055;28;20491;-74
2021/07/27 00:25:39;;;;;;;7.90;1.00;;;;;;;;;;4867408;28;20651;-73
2021/07/27 00:28:20;;;;;;;13.40;1.63;;;;;;;;;;4856226;28;20191;-75
2021/07/27 00:31:01;;;;;;;7.90;1.03;;;;;;;;;;4874853;28;20182;-73
2021/07/27 00:33:43;;;;;;;30.00;3.53;;;;;;;;;;4871187;28;20214;-72
2021/07/27 00:36:25;;;;;;;17.27;2.10;;;19.60;41.30;;;;;;4877384;28;20187;-80
2021/07/27 00:39:06;;;;;;;9.20;1.17;;;;;;;;;;4877736;28;20505;-86
2021/07/27 00:41:47;;;;;;;20.83;2.50;;;;;;;;;;4872536;28;20174;-82
2021/07/27 00:44:28;;;;;;;15.00;1.87;;;;;;;;;;4877144;28;20184;-73
2021/07/27 00:47:09;;;;;;;12.87;1.60;;;;;;;;;;4877589;28;20222;-82
2021/07/27 00:49:51;;;;;;;19.57;2.43;;;19.40;38.10;;;;;;4876878;28;20182;-73
2021/07/27 00:52:34;;;;;;;13.70;1.77;;;19.40;37.70;;;;;;4870361;28;20176;-79
2021/07/27 00:55:16;;;;;;;17.03;2.10;;;;;;;;;;4876220;28;20712;-73
2021/07/27 00:57:57;;;;;;;22.73;2.67;;;;;;;;;;4877207;28;20524;-72
2021/07/27 01:00:38;;;;;;;98.40;11.30;;;;;;;;;;4868422;28;20559;-72
2021/07/27 01:03:19;;;;;;;12.63;1.60;;;;;;;;;;4877694;28;20222;-74
2021/07/27 01:06:01;;;;;;;10.43;1.40;;;;;;;;;;4857035;28;20631;-73
2021/07/27 01:08:45;;;;;;;53.20;6.20;;;19.30;36.70;;;;;;4869447;28;20174;-73
2021/07/27 01:11:26;;;;;;;26.87;3.23;;;;;;;;;;4877142;28;20270;-75
2021/07/27 01:14:07;;;;;;;24.33;3.03;;;;;;;;;;4877158;28;20210;-82
2021/07/27 01:16:48;;;;;;;30.50;3.57;;;;;;;;;;4871425;28;20639;-76
2021/07/27 01:19:40;;;;;;;19.00;2.33;;;19.30;36.50;;;;;;4875765;28;20208;-75
2021/07/27 01:40:24;;;;;;;21.63;2.60;;;18.20;36.60;;;;;;4847449;28;20277;-73
2021/07/27 01:43:05;;;;;;;21.70;2.70;;;;;;;;;;4875806;28;20192;-78
2021/07/27 01:45:46;;;;;;;34.57;4.03;;;;;;;;;;4869885;28;20190;-72
2021/07/27 01:48:37;;;;;;;23.37;2.77;;;19.20;38.10;;;;;;4876136;28;20198;-72
2021/07/27 01:51:24;;;;;;;18.20;2.30;;;19.10;36.80;;;;;;4875981;28;20218;-80
2021/07/27 01:54:08;;;;;;;14.43;1.93;;;;;;;;;;4875976;28;20225;-80
2021/07/27 01:56:50;;;;;;;19.40;2.33;;;18.70;35.60;;;;;;4871576;28;20213;-80
2021/07/27 01:59:34;;;;;;;10.73;1.30;;;18.70;35.60;;;;;;4868685;28;20213;-79
2021/07/27 02:02:15;;;;;;;28.03;3.40;;;;;;;;;;4872764;28;20189;-79
2021/07/27 02:04:56;;;;;;;29.40;3.57;;;;;;;;;;4855202;28;20540;-80
2021/07/27 02:07:38;;;;;;;17.90;2.27;;;18.70;35.90;;;;;;4859948;28;20177;-81
2021/07/27 02:10:20;;;;;;;19.97;2.43;;;;;;;;;;4875100;28;20185;-81
2021/07/27 02:13:12;;;;;;;12.23;1.50;;;18.70;36.00;;;;;;4874990;28;20504;-79
2021/07/27 02:15:54;;;;;;;31.40;3.67;;;;;;;;;;4850394;28;20541;-81
2021/07/27 02:18:35;;;;;;;46.20;5.40;;;;;;;;;;4852213;28;20185;-79
2021/07/27 02:21:16;;;;;;;20.47;2.50;;;;;;;;;;4868711;28;20260;-79
2021/07/27 02:23:57;;;;;;;22.70;2.70;;;;;;;;;;4874410;28;20189;-81
2021/07/27 02:26:40;;;;;;;17.00;2.17;;;18.70;36.40;;;;;;4860156;28;20191;-81
2021/07/27 02:29:22;;;;;;;23.23;2.87;;;18.70;36.50;;;;;;4874554;28;20261;-81
2021/07/27 02:32:04;;;;;;;21.37;2.60;;;;;;;;;;4875639;28;20182;-82
2021/07/27 02:34:46;;;;;;;35.73;4.23;;;;;;;;;;4853034;28;20457;-79
2021/07/27 02:37:27;;;;;;;26.77;3.20;;;;;;;;;;4875222;28;20186;-80
2021/07/27 02:40:10;;;;;;;26.40;3.20;;;18.70;36.70;;;;;;4872837;28;20185;-85
2021/07/27 02:42:51;;;;;;;23.43;2.83;;;;;;;;;;4863535;28;20512;-80
2021/07/27 02:45:34;;;;;;;18.13;2.27;;;18.70;36.70;;;;;;4866609;28;20185;-82
2021/07/27 02:48:15;;;;;;;22.93;2.80;;;;;;;;;;4874340;28;20189;-80
2021/07/27 02:51:02;;;;;;;30.20;3.67;;;18.70;36.70;;;;;;4875007;28;20213;-80
2021/07/27 02:53:44;;;;;;;22.90;2.80;;;;;;;;;;4868779;28;20222;-82
2021/07/27 02:56:26;;;;;;;20.10;2.53;;;18.60;36.70;;;;;;4873730;28;20272;-81
2021/07/27 02:59:07;;;;;;;19.10;2.33;;;;;;;;;;4867282;28;20189;-82
2021/07/27 03:01:50;;;;;;;24.97;3.03;;;18.50;36.70;;;;;;4867406;28;20278;-80
2021/07/27 03:04:31;;;;;;;22.30;2.73;;;;;;;;;;4875128;28;20213;-79
2021/07/27 03:07:18;;;;;;;13.13;1.67;;;;;;;;;;4873049;28;20193;-79
2021/07/27 03:10:18;;;;;;;8.77;1.17;;;;;;;;;;4870745;28;20643;-79
2021/07/27 03:12:59;;;;;;;7.50;1.03;;;;;;;;;;4871855;28;20787;-79
2021/07/27 03:15:41;;;;;;;10.30;1.30;;;;;;;;;;4863451;28;20212;-80
2021/07/27 03:18:23;;;;;;;15.90;2.00;;;18.20;36.60;;;;;;4873455;28;20529;-80
2021/07/27 03:21:04;;;;;;;10.80;1.47;;;;;;;;;;4854907;28;20182;-81
2021/07/27 03:23:46;;;;;;;30.07;3.63;;;;;;;;;;4873808;28;20639;-81
2021/07/27 03:26:27;;;;;;;13.67;1.80;;;;;;;;;;4874798;28;20189;-80
2021/07/27 03:29:08;;;;;;;13.07;1.70;;;;;;;;;;4874007;28;20190;-82
2021/07/27 03:31:49;;;;;;;12.27;1.53;;;;;;;;;;4869597;28;20509;-83
2021/07/27 03:34:31;;;;;;;11.93;1.53;;;18.10;36.80;;;;;;4876310;28;20209;-85
2021/07/27 03:37:13;;;;;;;13.97;1.77;;;;;;;;;;4856444;28;20190;-86
2021/07/27 03:39:54;;;;;;;20.40;2.53;;;;;;;;;;4873757;28;20190;-79
2021/07/27 03:42:35;;;;;;;9.90;1.30;;;;;;;;;;4866075;28;20261;-80
2021/07/27 03:45:16;;;;;;;15.40;2.03;;;;;;;;;;4859510;28;20268;-77
2021/07/27 03:47:57;;;;;;;19.03;2.33;;;;;;;;;;4875086;28;20181;-81
2021/07/27 03:50:40;;;;;;;8.77;1.20;;;18.20;37.00;;;;;;4858032;28;20524;-81
2021/07/27 03:53:22;;;;;;;11.43;1.43;;;18.20;37.00;;;;;;4874826;28;20253;-80
2021/07/27 03:56:03;;;;;;;12.33;1.63;;;;;;;;;;4874690;28;20892;-83
2021/07/27 03:58:45;;;;;;;27.93;3.40;;;;;;;;;;4874513;28;20178;-82
2021/07/27 04:01:26;;;;;;;20.17;2.67;;;;;;;;;;4856464;28;20205;-79
2021/07/27 04:04:07;;;;;;;10.10;1.33;;;;;;;;;;4860344;28;20217;-81
2021/07/27 04:06:49;;;;;;;14.10;1.80;;;18.20;37.10;;;;;;4869762;28;20173;-83
2021/07/27 04:09:31;;;;;;;13.77;1.70;;;;;;;;;;4878558;28;20221;-79
2021/07/27 04:12:13;;;;;;;8.00;1.03;;;;;;;;;;4876619;28;20181;-80
2021/07/27 04:14:54;;;;;;;18.90;2.33;;;;;;;;;;4877450;28;20213;-78
2021/07/27 04:17:35;;;;;;;12.43;1.63;;;;;;;;;;4871814;28;20181;-80
2021/07/27 04:20:16;;;;;;;15.17;1.83;;;;;;;;;;4878119;28;20178;-81
2021/07/27 04:23:00;;;;;;;10.47;1.40;;;18.30;37.30;;;;;;4877417;28;20186;-81
2021/07/27 04:25:42;;;;;;;13.17;1.63;;;;;;;;;;4864353;28;20189;-79
2021/07/27 04:28:23;;;;;;;14.30;1.83;;;;;;;;;;4863508;28;20243;-80
2021/07/27 04:31:04;;;;;;;16.67;2.13;;;;;;;;;;4878488;28;20185;-80
2021/07/27 04:33:45;;;;;;;13.47;1.70;;;;;;;;;;4871598;28;20178;-80
2021/07/27 04:36:26;;;;;;;17.50;2.20;;;;;;;;;;4877759;28;20201;-82
2021/07/27 04:39:09;;;;;;;8.13;1.10;;;18.50;37.60;;;;;;4877781;28;20181;-81
2021/07/27 04:41:50;;;;;;;15.30;1.93;;;;;;;;;;4865865;28;20177;-80
2021/07/27 04:44:31;;;;;;;15.00;1.83;;;;;;;;;;4878764;28;20518;-82
2021/07/27 04:47:12;;;;;;;10.57;1.37;;;;;;;;;;4879704;28;20212;-83
2021/07/27 04:49:53;;;;;;;12.80;1.63;;;;;;;;;;4871285;28;20185;-86
2021/07/27 04:52:37;;;;;;;9.50;1.20;;;;;;;;;;4871193;28;20181;-86
2021/07/27 04:55:19;;;;;;;13.80;1.73;;;18.50;37.70;;;;;;4860012;28;20346;-85
2021/07/27 04:58:01;;;;;;;8.07;1.07;;;;;;;;;;4878999;28;20260;-86
2021/07/27 05:00:42;;;;;;;59.50;7.17;;;;;;;;;;4874935;28;20221;-81
2021/07/27 05:03:23;;;;;;;14.57;1.90;;;;;;;;;;4878418;28;20209;-84
2021/07/27 05:06:07;;;;;;;9.73;1.30;;;19.10;38.20;;;;;;4876465;28;20189;-86
2021/07/27 05:08:48;;;;;;;23.30;2.83;;;;;;;;;;4857389;28;20189;-85
2021/07/27 05:11:30;;;;;;;12.93;1.67;;;19.40;38.30;;;;;;4878523;28;20190;-86
2021/07/27 05:14:11;;;;;;;9.83;1.37;;;;;;;;;;4878602;28;20608;-86
2021/07/27 05:16:53;;;;;;;15.17;1.93;;;;;;;;;;4863827;28;20683;-85
2021/07/27 05:19:34;;;;;;;9.67;1.30;;;;;;;;;;4870795;28;20181;-85
2021/07/27 05:22:15;;;;;;;17.50;2.17;;;;;;;;;;4875810;28;20178;-82
2021/07/27 05:24:56;;;;;;;20.10;2.43;;;19.90;38.60;;;;;;4873219;28;20178;-80
2021/07/27 05:27:39;;;;;;;7.67;1.03;;;19.90;38.60;;;;;;4874432;28;20726;-87
2021/07/27 05:30:20;;;;;;;6.83;0.93;;;;;;;;;;4877378;28;20264;-87
2021/07/27 05:33:02;;;;;;;9.73;1.30;;;;;;;;;;4860380;28;20648;-87
2021/07/27 05:35:44;;;;;;;20.20;2.43;;;;;;;;;;4859678;28;20207;-87
2021/07/27 05:38:24;;;;;;;11.80;1.60;;;;;;;;;;4858375;28;20178;-82
2021/07/27 05:41:06;;;;;;;5.27;0.70;;;;;;;;;;4860288;28;20174;-87
2021/07/27 05:43:48;;;;;;;16.50;2.00;;;20.30;38.60;;;;;;4860101;28;20176;-87
2021/07/27 05:46:29;;;;;;;10.40;1.30;;;;;;;;;;4860009;28;20175;-88
2021/07/27 05:49:11;;;;;;;6.60;0.87;;;;;;;;;;4858479;28;20228;-85
2021/07/27 05:51:54;;;;;;;16.80;2.10;;;20.20;38.40;;;;;;4863582;28;20203;-85
2021/07/27 05:54:35;;;;;;;11.67;1.50;;;;;;;;;;4871210;28;20215;-87
2021/07/27 05:57:17;;;;;;;12.97;1.67;;;;;;;;;;4879174;28;20290;-86
2021/07/27 06:00:00;;;;;;;5.40;0.77;;;20.10;38.40;;;;;;4876646;28;20183;-80
2021/07/27 06:02:41;;;;;;;13.30;1.67;;;;;;;;;;4869488;28;20182;-87
2021/07/27 06:05:22;;;;;;;13.97;1.83;;;;;;;;;;4876387;28;20191;-79
2021/07/27 06:08:03;;;;;;;13.40;1.73;;;;;;;;;;4876332;28;20636;-79
2021/07/27 06:10:45;;;;;;;21.60;2.67;;;;;;;;;;4869323;28;20172;-81
2021/07/27 06:13:27;;;;;;;16.10;2.10;;;;;;;;;;4876092;28;20197;-78
2021/07/27 06:16:09;;;;;;;12.07;1.50;;;20.20;38.30;;;;;;4875397;28;20564;-78
2021/07/27 06:18:50;;;;;;;19.03;2.37;;;20.30;38.40;;;;;;4870382;28;20186;-79
2021/07/27 06:21:31;;;;;;;14.37;1.87;;;;;;;;;;4875150;28;20192;-78
2021/07/27 06:24:13;;;;;;;10.20;1.40;;;;;;;;;;4873759;28;20582;-79
2021/07/27 06:26:54;;;;;;;18.07;2.23;;;;;;;;;;4875545;28;20632;-78
2021/07/27 06:29:35;;;;;;;10.40;1.37;;;;;;;;;;4874727;28;20510;-79
2021/07/27 06:32:18;;;;;;;16.70;2.17;;;20.30;38.30;;;;;;4873734;28;20187;-80
2021/07/27 06:34:59;;;;;;;16.97;2.17;;;;;;;;;;4876442;28;20361;-78
2021/07/27 06:37:40;;;;;;;6.10;0.87;;;;;;;;;;4875066;28;20203;-79
2021/07/27 06:40:22;;;;;;;29.50;3.67;;;;;;;;;;4876140;28;20192;-79
2021/07/27 06:43:03;;;;;;;16.43;2.13;;;;;;;;;;4874625;28;20199;-84
2021/07/27 06:45:44;;;;;;;32.53;3.97;;;;;;;;;;4868535;28;20184;-79
2021/07/27 06:48:26;;;;;;;14.33;1.83;;;20.80;38.70;;;;;;4876252;28;20181;-78
2021/07/27 06:51:12;;;;;;;9.13;1.23;;;20.80;38.70;;;;;;4877020;28;20262;-85
2021/07/27 06:53:55;;;;;;;32.00;4.03;;;;;;;;;;4875221;28;20221;-80
2021/07/27 06:56:37;;;;;;;18.00;2.23;;;;;;;;;;4874439;28;20242;-79
2021/07/27 06:59:18;;;;;;;17.10;2.17;;;;;;;;;;4874953;28;20184;-83
2021/07/27 07:01:59;;;;;;;18.90;2.50;;;;;;;;;;4872695;28;20198;-80
2021/07/27 07:04:43;;;;;;;16.00;2.00;;;21.40;38.90;;;;;;4868821;28;20197;-81
2021/07/27 07:07:25;;;;;;;16.63;2.20;;;;;;;;;;4875770;28;20646;-83
2021/07/27 07:10:07;;;;;;;11.00;1.47;;;21.20;38.70;;;;;;4875883;28;20174;-83
2021/07/27 07:12:49;;;;;;;15.57;2.00;;;;;;;;;;4870715;28;20175;-78
2021/07/27 07:15:30;;;;;;;9.50;1.30;;;;;;;;;;4858296;28;20184;-85
2021/07/27 07:18:11;;;;;;;10.37;1.37;;;;;;;;;;4876862;28;20596;-83
2021/07/27 07:20:54;;;;;;;11.60;1.57;;;21.00;38.50;;;;;;4872414;28;20188;-83
2021/07/27 07:23:36;;;;;;;26.33;3.23;;;20.80;38.40;;;;;;4868498;28;20178;-84
2021/07/27 07:26:17;;;;;;;23.07;2.83;;;;;;;;;;4873354;28;20185;-83
2021/07/27 07:28:58;;;;;;;14.30;1.90;;;;;;;;;;4874140;28;20486;-84
2021/07/27 07:31:39;;;;;;;6.37;0.97;;;;;;;;;;4876505;28;20192;-83
2021/07/27 07:34:20;;;;;;;19.43;2.43;;;;;;;;;;4874991;28;20191;-82
2021/07/27 07:37:05;;;;;;;24.43;3.10;;;20.60;38.30;;;;;;4873626;28;20204;-83
2021/07/27 07:39:46;;;;;;;26.70;3.33;;;;;;;;;;4868229;28;20183;-82
2021/07/27 07:42:27;;;;;;;18.93;2.33;;;;;;;;;;4877304;28;20183;-82
2021/07/27 07:45:12;;;;;;;10.17;1.37;;;20.90;38.50;;;;;;4879378;28;20183;-83
2021/07/27 07:48:00;;;;;;;15.13;1.87;;;;;;;;;;4878748;28;20191;-82
2021/07/27 07:50:41;;;;;;;15.70;1.97;;;;;;;;;;4872599;28;20180;-83
2021/07/27 07:53:23;;;;;;;21.93;2.77;;;20.80;38.40;;;;;;4877942;28;20218;-82
2021/07/27 07:56:09;;;;;;;18.07;2.27;;;21.40;38.70;;;;;;4878227;28;20183;-85
2021/07/27 07:58:50;;;;;;;24.23;3.07;;;;;;;;;;4870962;28;20196;-82
2021/07/27 08:01:32;;;;;;;12.33;1.67;;;;;;;;;;4864065;28;20278;-85
2021/07/27 08:04:13;;;;;;;12.03;1.57;;;;;;;;;;4878954;28;20572;-80
2021/07/27 08:06:54;;;;;;;24.00;3.03;;;;;;;;;;4877992;28;20189;-81
2021/07/27 08:09:37;;;;;;;20.53;2.60;;;21.00;38.10;;;;;;4868884;28;20171;-82
2021/07/27 08:12:18;;;;;;;21.07;2.63;;;;;;;;;;4877655;28;20221;-81
2021/07/27 08:14:59;;;;;;;19.07;2.37;;;;;;;;;;4877497;28;20189;-80
2021/07/27 08:17:40;;;;;;;6.13;0.90;;;;;;;;;;4871534;28;20673;-81
2021/07/27 08:20:22;;;;;;;10.20;1.40;;;;;;;;;;4876871;28;20174;-77
2021/07/27 08:23:04;;;;;;;13.93;1.80;;;;;;;;;;4861513;28;20192;-83
2021/07/27 08:25:47;;;;;;;21.67;2.70;;;21.70;38.10;;;;;;4878114;28;20276;-77
2021/07/27 08:28:28;;;;;;;31.60;3.87;;;;;;;;;;4876387;28;20180;-77
2021/07/27 08:31:09;;;;;;;12.63;1.67;;;;;;;;;;4876727;28;20263;-78
2021/07/27 08:33:50;;;;;;;21.90;2.67;;;;;;;;;;4877935;28;20180;-78
2021/07/27 08:36:31;;;;;;;15.50;2.00;;;;;;;;;;4856574;28;20183;-76
2021/07/27 08:39:12;;;;;;;21.03;2.60;;;;;;;;;;4850508;28;20194;-78
2021/07/27 08:41:59;;;;;;;24.50;2.83;;;22.80;37.70;;;;;;4876232;28;20188;-78
2021/07/27 08:44:44;;;;;;;23.87;2.80;;;22.60;37.30;;;;;;4878144;28;20216;-77
2021/07/27 08:47:26;;;;;;;11.93;1.50;;;;;;;;;;4859323;28;20268;-77
2021/07/27 08:50:09;;;;;;;15.80;1.93;;;22.60;36.80;;;;;;4857236;28;20181;-77
2021/07/27 08:52:50;;;;;;;27.73;3.23;;;;;;;;;;4872672;28;20219;-76
2021/07/27 08:55:31;;;;;;;14.40;1.87;;;;;;;;;;4877799;28;20176;-77
2021/07/27 08:58:14;;;;;;;13.53;1.70;;;22.50;35.60;;;;;;4878145;28;20837;-76
2021/07/27 09:00:55;;;;;;;27.67;3.37;;;;;;;;;;4874227;28;20192;-78
2021/07/27 09:03:48;;;;;;;15.87;2.00;;;22.80;35.20;;;;;;4877831;28;20219;-77
2021/07/27 09:06:29;;;;;;;16.20;2.00;;;;;;;;;;4879920;28;20180;-76
2021/07/27 09:09:11;;;;;;;24.80;3.07;;;22.90;34.60;;;;;;4855865;28;20191;-78
2021/07/27 09:11:53;;;;;;;34.43;4.03;;;;;;;;;;4872121;28;20184;-80
2021/07/27 09:14:43;;;;;;;35.00;4.20;;;23.10;34.30;;;;;;4871864;28;20780;-76
2021/07/27 09:17:27;;;;;;;20.63;2.60;;;23.30;34.50;;;;;;4876585;28;20204;-78
2021/07/27 09:20:09;;;;;;;29.03;3.50;;;23.80;35.10;;;;;;4875476;28;20194;-74
2021/07/27 09:22:51;;;;;;;33.07;3.93;;;;;;;;;;4876768;28;20188;-79
2021/07/27 09:25:34;;;;;;;19.83;2.53;;;24.90;56.00;;;;;;4875707;28;20185;-78
2021/07/27 09:28:15;;;;;;;19.17;2.40;;;;;;;;;;4875816;28;20582;-75
2021/07/27 09:31:03;;;;;;;21.43;2.80;;;26.50;99.90;;;;;;4876725;28;20180;-77
2021/07/27 09:33:44;;;;;;;26.63;3.20;;;;;;;;;;4855704;28;20268;-83
2021/07/27 09:36:26;;;;;;;19.00;2.37;;;27.40;81.70;;;;;;4875468;28;20179;-75
2021/07/27 09:39:07;;;;;;;23.17;2.90;;;;;;;;;;4873716;28;20669;-77
2021/07/27 09:41:58;;;;;;;26.53;3.37;;;28.10;46.00;;;;;;4875494;28;20180;-79
2021/07/27 09:44:40;;;;;;;32.07;4.03;;;28.50;79.50;;;;;;4876017;28;20229;-76
2021/07/27 09:47:23;;;;;;;17.33;2.63;;;29.00;78.00;;;;;;4874620;28;20206;-76
2021/07/27 09:50:05;;;;;;;18.03;3.03;;;;;;;;;;4875266;28;20218;-75
2021/07/27 09:52:46;;;;;;;29.40;4.07;;;;;;;;;;4876136;28;20183;-78
2021/07/27 09:55:28;;;;;;;15.80;2.53;;;;;;;;;;4876239;28;20283;-76
2021/07/27 09:58:09;;;;;;;14.87;2.20;;;29.10;99.90;;;;;;4876211;28;20205;-79
2021/07/27 10:00:54;;;;;;;30.43;3.93;;;29.30;73.90;;;;;;4874229;28;20272;-78
2021/07/27 10:03:45;;;;;;;19.40;2.93;;;29.90;67.20;;;;;;4853655;28;20678;-83
2021/07/27 10:06:27;;;;;;;17.80;3.22;;;30.30;99.90;;;;;;4876821;28;20181;-79
2021/07/27 10:09:09;;;;;;;18.90;11.20;;;;;;;;;;4867107;28;20177;-78
2021/07/27 10:11:52;;;;;;;36.90;28.73;;;;;;;;;;4866779;28;20189;-77
2021/07/27 10:14:42;;;;;;;45.47;40.97;;;32.10;30.00;;;;;;4872544;28;20186;-77
2021/07/27 10:17:26;;;;;;;35.08;31.65;;;32.50;55.00;;;;;;4864270;28;20206;-79
2021/07/27 10:20:21;;;;;;;41.88;36.42;;;32.70;99.90;;;;;;4866712;28;20181;-79
2021/07/27 10:23:16;;;;;;;40.95;37.20;;;32.90;43.80;;;;;;4877237;28;20268;-81
2021/07/27 10:25:59;;;;;;;53.08;39.80;;;32.40;44.90;;;;;;4875475;28;20174;-82
2021/07/27 10:28:41;;;;;;;80.13;50.88;;;;;;;;;;4868681;28;20185;-79
2021/07/27 10:31:32;;;;;;;56.42;51.65;;;33.20;51.20;;;;;;4874372;28;20185;-79
2021/07/27 10:34:14;;;;;;;48.08;38.90;;;32.40;54.00;;;;;;4860182;28;20643;-78
2021/07/27 10:37:07;;;;;;;55.70;40.75;;;32.20;48.80;;;;;;4875827;28;20173;-79
2021/07/27 10:39:50;;;;;;;54.83;41.42;;;33.00;51.70;;;;;;4859111;28;20217;-79
2021/07/27 10:42:39;;;;;;;39.22;35.25;;;34.10;57.50;;;;;;4875077;28;20500;-79
2021/07/27 10:45:20;;;;;;;41.78;36.50;;;34.80;63.10;;;;;;4875508;28;20197;-82
2021/07/27 10:48:02;;;;;;;33.88;30.30;;;;;;;;;;4869610;28;20212;-82
2021/07/27 10:50:44;;;;;;;51.63;40.90;;;;;;;;;;4853600;28;20185;-82
2021/07/27 10:53:30;;;;;;;50.65;41.22;;;34.50;65.00;;;;;;4873828;28;20225;-79
2021/07/27 10:56:12;;;;;;;46.70;41.63;;;;;;;;;;4876146;28;20185;-80
2021/07/27 10:58:53;;;;;;;56.70;41.28;;;;;;;;;;4869229;28;20209;-80
2021/07/27 11:01:34;;;;;;;43.45;39.25;;;;;;;;;;4864424;28;20536;-79
2021/07/27 11:04:17;;;;;;;133.23;125.68;;;;;;;;;;4876668;28;20184;-81
2021/07/27 11:07:13;;;;;;;248.98;231.43;;;38.20;73.90;;;;;;4876239;28;20209;-78
2021/07/27 11:09:57;;;;;;;252.75;235.20;;;39.20;75.90;;;;;;4876187;28;20189;-80
2021/07/27 11:12:42;;;;;;;223.82;209.38;;;40.10;76.50;;;;;;4876825;28;20169;-79
2021/07/27 11:15:25;;;;;;;234.20;219.02;;;41.00;78.30;;;;;;4874602;28;20180;-80
2021/07/27 11:18:06;;;;;;;116.07;107.80;;;;;;;;;;4875513;28;20197;-79
2021/07/27 11:20:47;;;;;;;91.13;83.05;;;;;;;;;;4859667;28;20180;-79
2021/07/27 11:23:35;;;;;;;36.72;16.88;;;43.50;79.30;;;;;;4875669;28;20169;-82
2021/07/27 11:26:18;;;;;;;21.70;3.42;;;44.40;79.50;;;;;;4855713;28;20178;-81
2021/07/27 11:29:10;;;;;;;6.93;1.05;;;44.50;80.80;;;;;;4858849;28;20309;-80
2021/07/27 11:31:52;;;;;;;38.28;4.82;;;44.40;82.80;;;;;;4856058;28;20182;-79
2021/07/27 11:34:33;;;;;;;31.63;4.40;;;45.40;83.90;;;;;;4855635;28;20177;-74
2021/07/27 11:37:14;;;;;;;13.57;1.83;;;;;;;;;;4856985;28;20272;-77
2021/07/27 11:39:56;;;;;;;22.25;3.05;;;;;;;;;;4856630;28;20185;-79
2021/07/27 11:42:39;;;;;;;8.77;1.33;;;47.90;85.70;;;;;;4858063;28;20174;-83
2021/07/27 11:45:24;;;;;;;18.90;2.78;;;47.90;86.30;;;;;;4856639;28;20182;-76
2021/07/27 11:48:07;;;;;;;11.65;1.63;;;48.30;90.30;;;;;;4856968;28;20181;-75
2021/07/27 11:50:57;;;;;;;22.85;3.08;;;48.70;90.90;;;;;;4860502;28;20197;-78
2021/07/27 11:53:40;;;;;;;12.35;1.90;;;;;;;;;;4861129;28;20213;-78
2021/07/27 11:56:21;;;;;;;18.65;2.65;;;;;;;;;;4877108;28;20181;-77
2021/07/27 11:59:04;;;;;;;10.27;1.50;;;49.40;92.60;;;;;;4874605;28;20233;-77
2021/07/27 12:01:45;;;;;;;20.30;2.95;;;;;;;;;;4874227;28;20181;-77
2021/07/27 12:04:27;;;;;;;14.00;2.45;;;;;;;;;;4875501;28;20185;-82
2021/07/27 12:07:08;;;;;;;19.70;2.88;;;;;;;;;;4860361;28;20177;-78
2021/07/27 12:09:49;;;;;;;22.33;3.15;;;;;;;;;;4875908;28;20174;-77
2021/07/27 12:12:30;;;;;;;21.85;3.05;;;;;;;;;;4877900;28;20177;-77
2021/07/27 12:15:13;;;;;;;9.60;1.50;;;50.20;94.70;;;;;;4874871;28;20216;-76
2021/07/27 12:17:54;;;;;;;28.52;4.03;;;;;;;;;;4875581;28;20547;-78
2021/07/27 12:20:35;;;;;;;14.77;2.13;;;;;;;;;;4874485;28;20631;-78
2021/07/27 12:23:18;;;;;;;9.23;1.40;;;50.00;95.30;;;;;;4876435;28;20173;-78
2021/07/27 12:25:59;;;;;;;13.98;2.08;;;;;;;;;;4877048;28;20182;-78
2021/07/27 12:28:40;;;;;;;58.53;8.27;;;;;;;;;;4877028;28;20650;-77
2021/07/27 12:31:23;;;;;;;9.40;1.45;;;49.60;99.90;;;;;;4879620;28;20541;-80
2021/07/27 12:34:04;;;;;;;17.90;2.60;;;;;;;;;;4878759;28;20589;-77
2021/07/27 12:36:45;;;;;;;28.58;4.03;;;;;;;;;;4878135;28;20189;-76
2021/07/27 12:39:27;;;;;;;16.60;2.47;;;;;;;;;;4878060;28;20618;-78
2021/07/27 12:42:08;;;;;;;12.63;2.03;;;;;;;;;;4879698;28;20177;-76
2021/07/27 12:44:49;;;;;;;24.35;3.50;;;;;;;;;;4878659;28;20217;-79
2021/07/27 12:47:32;;;;;;;12.15;1.90;;;48.30;99.90;;;;;;4878669;28;20193;-77
2021/07/27 12:50:13;;;;;;;15.43;2.17;;;47.20;99.90;;;;;;4878788;28;20181;-78
2021/07/27 12:52:55;;;;;;;30.05;3.88;;;;;;;;;;4878542;28;20518;-80
2021/07/27 12:55:36;;;;;;;12.57;1.77;;;;;;;;;;4858954;28;20185;-76
2021/07/27 12:58:17;;;;;;;14.73;1.98;;;;;;;;;;4858822;28;20186;-75
2021/07/27 13:00:59;;;;;;;33.53;4.43;;;;;;;;;;4857662;28;20181;-76
2021/07/27 13:03:41;;;;;;;11.65;1.63;;;47.80;99.90;;;;;;4843486;28;20264;-75
2021/07/27 13:06:22;;;;;;;13.52;2.05;;;;;;;;;;4859045;28;20202;-77
2021/07/27 13:09:04;;;;;;;12.35;1.90;;;48.70;99.90;;;;;;4858347;28;20265;-73
2021/07/27 13:11:45;;;;;;;31.92;4.32;;;;;;;;;;4858557;28;20260;-77
2021/07/27 13:14:26;;;;;;;15.63;2.30;;;;;;;;;;4869427;28;20181;-76
2021/07/27 13:17:08;;;;;;;10.13;1.50;;;;;;;;;;4858996;28;20512;-77
2021/07/27 13:19:50;;;;;;;25.15;3.45;;;49.70;99.90;;;;;;4857585;28;20862;-77
2021/07/27 13:22:32;;;;;;;19.25;2.78;;;;;;;;;;4858628;28;20185;-78
2021/07/27 13:25:13;;;;;;;7.97;1.25;;;;;;;;;;4863388;28;20174;-75
2021/07/27 13:27:56;;;;;;;32.20;4.20;;;49.40;99.90;;;;;;4858094;28;20624;-75
2021/07/27 13:30:37;;;;;;;21.85;2.90;;;;;;;;;;4842535;28;20214;-74
2021/07/27 13:33:19;;;;;;;25.40;3.45;;;;;;;;;;4858007;28;20514;-78
2021/07/27 13:36:01;;;;;;;21.25;2.92;;;48.80;99.90;;;;;;4857316;28;20182;-74
2021/07/27 13:38:43;;;;;;;55.00;7.18;;;;;;;;;;4855836;28;20202;-74
2021/07/27 13:41:24;;;;;;;21.77;3.05;;;;;;;;;;4857963;28;20181;-76
2021/07/27 13:44:05;;;;;;;22.00;3.05;;;;;;;;;;4861949;28;20189;-77
2021/07/27 13:46:46;;;;;;;32.03;4.22;;;;;;;;;;4876542;28;20178;-76
2021/07/27 13:49:29;;;;;;;21.48;3.10;;;;;;;;;;4875950;28;20173;-76
2021/07/27 13:52:11;;;;;;;21.08;2.88;;;49.30;99.90;;;;;;4876893;28;20181;-76
2021/07/27 13:54:52;;;;;;;31.75;4.35;;;;;;;;;;4876323;28;20224;-74
2021/07/27 13:57:33;;;;;;;22.77;3.17;;;;;;;;;;4876195;28;20192;-77
2021/07/27 14:00:15;;;;;;;17.30;2.45;;;;;;;;;;4875646;28;20205;-76
2021/07/27 14:02:56;;;;;;;28.75;3.80;;;;;;;;;;4876610;28;20181;-75
2021/07/27 14:05:37;;;;;;;21.83;3.00;;;;;;;;;;4876382;28;20263;-75
2021/07/27 14:08:20;;;;;;;19.40;2.58;;;47.30;99.90;;;;;;4876212;28;20181;-75
2021/07/27 14:11:01;;;;;;;17.60;2.35;;;;;;;;;;4876263;28;20196;-75
2021/07/27 14:13:43;;;;;;;21.08;2.80;;;;;;;;;;4876476;28;20181;-76
2021/07/27 14:16:24;;;;;;;20.38;2.65;;;;;;;;;;4876054;28;20200;-74
2021/07/27 14:19:05;;;;;;;20.10;2.70;;;;;;;;;;4875345;28;20200;-74
2021/07/27 14:21:46;;;;;;;29.92;3.80;;;;;;;;;;4875560;28;20522;-75
2021/07/27 14:24:29;;;;;;;21.23;2.80;;;39.80;99.90;;;;;;4876126;28;20213;-74
2021/07/27 14:27:11;;;;;;;16.75;2.17;;;38.10;99.90;;;;;;4876459;28;20178;-75
2021/07/27 14:29:52;;;;;;;31.15;3.85;;;;;;;;;;4874385;28;20490;-74
2021/07/27 14:32:33;;;;;;;22.15;2.85;;;;;;;;;;4876286;28;20178;-81
2021/07/27 14:35:14;;;;;;;18.10;2.33;;;;;;;;;;4875958;28;20177;-74
2021/07/27 14:37:56;;;;;;;32.67;4.10;;;;;;;;;;4875785;28;20208;-73
2021/07/27 14:40:38;;;;;;;27.92;3.53;;;34.10;99.90;;;;;;4873747;28;20209;-75
2021/07/27 14:43:19;;;;;;;22.58;2.95;;;;;;;;;;4875931;28;20178;-74
2021/07/27 14:46:01;;;;;;;15.55;2.03;;;;;;;;;;4875597;28;20189;-74
2021/07/27 14:48:42;;;;;;;38.70;4.78;;;;;;;;;;4875247;28;20185;-76
2021/07/27 14:51:23;;;;;;;24.35;3.13;;;;;;;;;;4874100;28;20177;-74
2021/07/27 14:54:04;;;;;;;17.25;2.17;;;;;;;;;;4875726;28;20205;-75
2021/07/27 14:56:46;;;;;;;33.55;4.22;;;32.90;99.90;;;;;;4875246;28;20185;-74
2021/07/27 14:59:27;;;;;;;18.63;2.38;;;;;;;;;;4874947;28;20216;-73
2021/07/27 15:02:09;;;;;;;18.00;2.35;;;;;;;;;;4871999;28;20185;-74
2021/07/27 15:04:49;;;;;;;30.65;3.88;;;;;;;;;;4875280;28;20185;-75
2021/07/27 15:07:31;;;;;;;18.02;2.30;;;;;;;;;;4875633;28;20173;-75
2021/07/27 15:10:14;;;;;;;17.42;2.33;;;31.60;99.90;;;;;;4874766;28;20185;-75
2021/07/27 15:12:56;;;;;;;31.30;4.00;;;31.40;99.90;;;;;;4874057;28;20185;-76
2021/07/27 15:15:37;;;;;;;16.73;2.17;;;;;;;;;;4875044;28;20182;-75
2021/07/27 15:18:18;;;;;;;18.63;2.47;;;;;;;;;;4875394;28;20185;-76
2021/07/27 15:21:00;;;;;;;22.80;2.95;;;;;;;;;;4874356;28;20204;-73
2021/07/27 15:23:42;;;;;;;28.77;3.65;;;;;;;;;;4873694;28;20292;-74
2021/07/27 15:26:23;;;;;;;21.23;2.65;;;;;;;;;;4874603;28;20177;-73
2021/07/27 15:29:05;;;;;;;19.60;2.55;;;30.40;99.90;;;;;;4874416;28;20189;-73